sensor_id;sensor_type;location;lat;lon;timestamp;temperature;humidity
530;DHT22;251;48.704;9.210;2023-04-23T00:01:05;13.50;24.40
530;DHT22;251;48.704;9.210;2023-04-23T00:03:33;13.40;24.80
530;DHT22;251;48.704;9.210;2023-04-23T00:06:04;13.40;24.40
530;DHT22;251;48.704;9.210;2023-04-23T00:08:32;13.30;24.50
530;DHT22;251;48.704;9.210;2023-04-23T00:11:00;13.20;24.20
530;DHT22;251;48.704;9.210;2023-04-23T00:13:27;13.20;24.10
530;DHT22;251;48.704;9.210;2023-04-23T00:15:56;13.30;24.20
530;DHT22;251;48.704;9.210;2023-04-23T00:18:23;13.50;24.70
530;DHT22;251;48.704;9.210;2023-04-23T00:20:50;13.30;24.60
530;DHT22;251;48.704;9.210;2023-04-23T00:23:17;13.50;24.90
530;DHT22;251;48.704;9.210;2023-04-23T00:25:44;13.40;25.00
530;DHT22;251;48.704;9.210;2023-04-23T00:28:10;13.20;24.50
530;DHT22;251;48.704;9.210;2023-04-23T00:30:37;13.20;24.60
530;DHT22;251;48.704;9.210;2023-04-23T00:33:06;13.40;25.00
530;DHT22;251;48.704;9.210;2023-04-23T00:35:32;13.50;25.70
530;DHT22;251;48.704;9.210;2023-04-23T00:37:59;13.40;25.50
530;DHT22;251;48.704;9.210;2023-04-23T00:40:26;13.40;25.40
530;DHT22;251;48.704;9.210;2023-04-23T00:42:53;13.20;24.90
530;DHT22;251;48.704;9.210;2023-04-23T00:45:20;13.30;25.90
530;DHT22;251;48.704;9.210;2023-04-23T00:47:47;13.30;26.50
530;DHT22;251;48.704;9.210;2023-04-23T00:50:16;13.10;26.30
530;DHT22;251;48.704;9.210;2023-04-23T00:52:43;13.20;27.50
530;DHT22;251;48.704;9.210;2023-04-23T00:55:10;13.00;29.30
530;DHT22;251;48.704;9.210;2023-04-23T00:57:37;13.00;28.80
530;DHT22;251;48.704;9.210;2023-04-23T01:00:05;12.90;30.50
530;DHT22;251;48.704;9.210;2023-04-23T01:02:34;12.70;31.50
530;DHT22;251;48.704;9.210;2023-04-23T01:05:03;12.80;32.70
530;DHT22;251;48.704;9.210;2023-04-23T01:07:34;12.60;35.50
530;DHT22;251;48.704;9.210;2023-04-23T01:10:01;12.50;36.50
530;DHT22;251;48.704;9.210;2023-04-23T01:12:30;12.60;39.70
530;DHT22;251;48.704;9.210;2023-04-23T01:14:57;12.50;41.00
530;DHT22;251;48.704;9.210;2023-04-23T01:17:24;12.30;43.80
530;DHT22;251;48.704;9.210;2023-04-23T01:19:51;12.30;44.70
530;DHT22;251;48.704;9.210;2023-04-23T01:22:20;12.40;46.30
530;DHT22;251;48.704;9.210;2023-04-23T01:24:47;12.10;47.50
530;DHT22;251;48.704;9.210;2023-04-23T01:27:14;12.10;50.20
530;DHT22;251;48.704;9.210;2023-04-23T01:29:41;12.20;50.30
530;DHT22;251;48.704;9.210;2023-04-23T01:32:08;12.20;52.90
530;DHT22;251;48.704;9.210;2023-04-23T01:34:37;11.80;54.00
530;DHT22;251;48.704;9.210;2023-04-23T01:37:04;12.10;51.80
530;DHT22;251;48.704;9.210;2023-04-23T01:39:33;12.20;54.00
530;DHT22;251;48.704;9.210;2023-04-23T01:42:01;12.20;52.80
530;DHT22;251;48.704;9.210;2023-04-23T01:44:28;11.80;50.00
530;DHT22;251;48.704;9.210;2023-04-23T01:46:55;12.00;50.30
530;DHT22;251;48.704;9.210;2023-04-23T01:49:23;11.80;48.50
530;DHT22;251;48.704;9.210;2023-04-23T01:51:50;11.80;49.40
530;DHT22;251;48.704;9.210;2023-04-23T01:54:17;12.10;49.10
530;DHT22;251;48.704;9.210;2023-04-23T01:56:45;12.10;49.80
530;DHT22;251;48.704;9.210;2023-04-23T01:59:12;11.70;50.40
530;DHT22;251;48.704;9.210;2023-04-23T02:01:43;12.10;52.30
530;DHT22;251;48.704;9.210;2023-04-23T02:04:11;11.70;52.10
530;DHT22;251;48.704;9.210;2023-04-23T02:06:38;11.70;52.80
530;DHT22;251;48.704;9.210;2023-04-23T02:09:05;11.80;53.80
530;DHT22;251;48.704;9.210;2023-04-23T02:11:33;11.80;53.30
530;DHT22;251;48.704;9.210;2023-04-23T02:14:01;12.10;53.60
530;DHT22;251;48.704;9.210;2023-04-23T02:16:28;11.80;52.90
530;DHT22;251;48.704;9.210;2023-04-23T02:18:55;12.10;55.90
530;DHT22;251;48.704;9.210;2023-04-23T02:21:23;11.80;55.50
530;DHT22;251;48.704;9.210;2023-04-23T02:23:51;12.00;58.10
530;DHT22;251;48.704;9.210;2023-04-23T02:26:17;12.20;58.50
530;DHT22;251;48.704;9.210;2023-04-23T02:28:44;11.80;57.10
530;DHT22;251;48.704;9.210;2023-04-23T02:31:13;12.00;55.60
530;DHT22;251;48.704;9.210;2023-04-23T02:33:40;12.00;55.60
530;DHT22;251;48.704;9.210;2023-04-23T02:36:08;11.60;55.10
530;DHT22;251;48.704;9.210;2023-04-23T02:38:36;11.70;60.80
530;DHT22;251;48.704;9.210;2023-04-23T02:41:05;12.00;61.70
530;DHT22;251;48.704;9.210;2023-04-23T02:43:32;12.00;60.80
530;DHT22;251;48.704;9.210;2023-04-23T02:46:00;11.90;62.60
530;DHT22;251;48.704;9.210;2023-04-23T02:48:35;11.80;63.70
530;DHT22;251;48.704;9.210;2023-04-23T02:51:02;11.80;65.80
530;DHT22;251;48.704;9.210;2023-04-23T02:53:28;11.90;66.20
530;DHT22;251;48.704;9.210;2023-04-23T02:55:55;11.90;66.90
530;DHT22;251;48.704;9.210;2023-04-23T02:58:23;11.80;66.90
530;DHT22;251;48.704;9.210;2023-04-23T03:00:52;11.70;62.90
530;DHT22;251;48.704;9.210;2023-04-23T03:03:19;11.80;63.60
530;DHT22;251;48.704;9.210;2023-04-23T03:05:47;11.60;63.20
530;DHT22;251;48.704;9.210;2023-04-23T03:08:13;11.50;65.20
530;DHT22;251;48.704;9.210;2023-04-23T03:10:40;11.60;63.80
530;DHT22;251;48.704;9.210;2023-04-23T03:13:07;11.60;65.20
530;DHT22;251;48.704;9.210;2023-04-23T03:15:34;11.60;66.30
530;DHT22;251;48.704;9.210;2023-04-23T03:18:01;11.60;68.80
530;DHT22;251;48.704;9.210;2023-04-23T03:20:29;11.80;66.70
530;DHT22;251;48.704;9.210;2023-04-23T03:22:58;11.80;66.60
530;DHT22;251;48.704;9.210;2023-04-23T03:25:25;11.60;66.70
530;DHT22;251;48.704;9.210;2023-04-23T03:27:52;11.60;65.40
530;DHT22;251;48.704;9.210;2023-04-23T03:30:19;11.60;65.50
530;DHT22;251;48.704;9.210;2023-04-23T03:32:48;11.60;66.20
530;DHT22;251;48.704;9.210;2023-04-23T03:35:15;11.70;65.20
530;DHT22;251;48.704;9.210;2023-04-23T03:37:45;11.50;64.80
530;DHT22;251;48.704;9.210;2023-04-23T03:40:14;11.50;65.70
530;DHT22;251;48.704;9.210;2023-04-23T03:42:45;11.60;67.60
530;DHT22;251;48.704;9.210;2023-04-23T03:45:13;11.40;68.20
530;DHT22;251;48.704;9.210;2023-04-23T03:47:41;11.30;69.30
530;DHT22;251;48.704;9.210;2023-04-23T03:50:09;11.20;71.50
530;DHT22;251;48.704;9.210;2023-04-23T03:52:38;11.20;73.00
530;DHT22;251;48.704;9.210;2023-04-23T03:55:09;11.20;75.80
530;DHT22;251;48.704;9.210;2023-04-23T03:57:42;11.50;77.60
530;DHT22;251;48.704;9.210;2023-04-23T04:00:19;11.20;79.20
530;DHT22;251;48.704;9.210;2023-04-23T04:02:46;11.20;78.00
530;DHT22;251;48.704;9.210;2023-04-23T04:05:13;11.10;77.90
530;DHT22;251;48.704;9.210;2023-04-23T04:07:40;11.20;78.20
530;DHT22;251;48.704;9.210;2023-04-23T04:10:08;11.30;77.80
530;DHT22;251;48.704;9.210;2023-04-23T04:12:35;11.40;77.50
530;DHT22;251;48.704;9.210;2023-04-23T04:15:04;11.20;78.50
530;DHT22;251;48.704;9.210;2023-04-23T04:17:31;11.40;79.80
530;DHT22;251;48.704;9.210;2023-04-23T04:19:58;11.40;78.50
530;DHT22;251;48.704;9.210;2023-04-23T04:22:25;11.40;75.60
530;DHT22;251;48.704;9.210;2023-04-23T04:24:51;11.50;74.70
530;DHT22;251;48.704;9.210;2023-04-23T04:27:18;11.50;75.10
530;DHT22;251;48.704;9.210;2023-04-23T04:29:45;11.30;74.90
530;DHT22;251;48.704;9.210;2023-04-23T04:32:14;11.60;72.60
530;DHT22;251;48.704;9.210;2023-04-23T04:34:41;11.30;73.20
530;DHT22;251;48.704;9.210;2023-04-23T04:37:07;11.40;74.20
530;DHT22;251;48.704;9.210;2023-04-23T04:39:35;11.10;73.80
530;DHT22;251;48.704;9.210;2023-04-23T04:42:03;11.40;74.00
530;DHT22;251;48.704;9.210;2023-04-23T04:44:31;10.90;74.70
530;DHT22;251;48.704;9.210;2023-04-23T04:46:58;11.00;75.90
530;DHT22;251;48.704;9.210;2023-04-23T04:49:26;11.00;76.10
530;DHT22;251;48.704;9.210;2023-04-23T04:51:53;11.10;76.60
530;DHT22;251;48.704;9.210;2023-04-23T04:54:19;11.00;78.10
530;DHT22;251;48.704;9.210;2023-04-23T04:56:46;11.10;78.70
530;DHT22;251;48.704;9.210;2023-04-23T04:59:13;11.30;78.80
530;DHT22;251;48.704;9.210;2023-04-23T05:01:40;11.20;78.90
530;DHT22;251;48.704;9.210;2023-04-23T05:04:07;11.20;78.00
530;DHT22;251;48.704;9.210;2023-04-23T05:06:35;11.30;77.60
530;DHT22;251;48.704;9.210;2023-04-23T05:09:02;11.20;79.00
530;DHT22;251;48.704;9.210;2023-04-23T05:11:29;11.40;74.60
530;DHT22;251;48.704;9.210;2023-04-23T05:13:57;11.40;74.40
530;DHT22;251;48.704;9.210;2023-04-23T05:16:24;11.10;72.10
530;DHT22;251;48.704;9.210;2023-04-23T05:18:50;11.30;73.60
530;DHT22;251;48.704;9.210;2023-04-23T05:21:17;11.40;73.20
530;DHT22;251;48.704;9.210;2023-04-23T05:23:46;11.60;71.90
530;DHT22;251;48.704;9.210;2023-04-23T05:26:13;11.30;69.20
530;DHT22;251;48.704;9.210;2023-04-23T05:28:40;11.50;68.50
530;DHT22;251;48.704;9.210;2023-04-23T05:31:07;11.50;69.00
530;DHT22;251;48.704;9.210;2023-04-23T05:33:34;11.40;69.20
530;DHT22;251;48.704;9.210;2023-04-23T05:36:01;11.50;68.40
530;DHT22;251;48.704;9.210;2023-04-23T05:38:27;11.70;66.00
530;DHT22;251;48.704;9.210;2023-04-23T05:40:55;11.60;62.60
530;DHT22;251;48.704;9.210;2023-04-23T05:43:22;11.70;63.30
530;DHT22;251;48.704;9.210;2023-04-23T05:45:49;11.80;57.90
530;DHT22;251;48.704;9.210;2023-04-23T05:48:16;12.00;56.80
530;DHT22;251;48.704;9.210;2023-04-23T05:50:43;11.70;55.70
530;DHT22;251;48.704;9.210;2023-04-23T05:53:09;12.20;58.00
530;DHT22;251;48.704;9.210;2023-04-23T05:55:37;12.00;58.50
530;DHT22;251;48.704;9.210;2023-04-23T05:58:05;11.90;55.30
530;DHT22;251;48.704;9.210;2023-04-23T06:00:31;12.10;54.40
530;DHT22;251;48.704;9.210;2023-04-23T06:02:59;12.10;53.60
530;DHT22;251;48.704;9.210;2023-04-23T06:05:26;12.00;50.00
530;DHT22;251;48.704;9.210;2023-04-23T06:07:53;12.30;49.50
530;DHT22;251;48.704;9.210;2023-04-23T06:10:20;12.40;47.80
530;DHT22;251;48.704;9.210;2023-04-23T06:12:47;12.50;46.00
530;DHT22;251;48.704;9.210;2023-04-23T06:15:15;12.40;46.70
530;DHT22;251;48.704;9.210;2023-04-23T06:17:42;12.70;45.20
530;DHT22;251;48.704;9.210;2023-04-23T06:20:09;12.70;41.70
530;DHT22;251;48.704;9.210;2023-04-23T06:22:36;12.80;39.80
530;DHT22;251;48.704;9.210;2023-04-23T06:25:04;13.10;39.70
530;DHT22;251;48.704;9.210;2023-04-23T06:27:31;13.30;38.00
530;DHT22;251;48.704;9.210;2023-04-23T06:30:03;13.50;34.80
530;DHT22;251;48.704;9.210;2023-04-23T06:32:32;13.00;34.70
530;DHT22;251;48.704;9.210;2023-04-23T06:34:58;13.20;37.10
530;DHT22;251;48.704;9.210;2023-04-23T06:37:25;13.20;35.90
530;DHT22;251;48.704;9.210;2023-04-23T06:39:52;13.20;37.10
530;DHT22;251;48.704;9.210;2023-04-23T06:42:19;13.30;39.10
530;DHT22;251;48.704;9.210;2023-04-23T06:45:11;13.20;35.40
530;DHT22;251;48.704;9.210;2023-04-23T06:47:41;13.20;34.00
530;DHT22;251;48.704;9.210;2023-04-23T06:50:08;13.30;34.70
530;DHT22;251;48.704;9.210;2023-04-23T06:52:35;13.30;34.70
530;DHT22;251;48.704;9.210;2023-04-23T06:55:02;13.30;34.10
530;DHT22;251;48.704;9.210;2023-04-23T06:57:29;13.20;34.70
530;DHT22;251;48.704;9.210;2023-04-23T06:59:56;13.20;33.10
530;DHT22;251;48.704;9.210;2023-04-23T07:02:27;13.50;33.30
530;DHT22;251;48.704;9.210;2023-04-23T07:04:55;13.80;31.90
530;DHT22;251;48.704;9.210;2023-04-23T07:07:22;13.70;31.60
530;DHT22;251;48.704;9.210;2023-04-23T07:09:48;13.70;30.80
530;DHT22;251;48.704;9.210;2023-04-23T07:12:15;13.70;29.00
530;DHT22;251;48.704;9.210;2023-04-23T07:14:42;13.80;29.10
530;DHT22;251;48.704;9.210;2023-04-23T07:17:09;13.80;28.50
530;DHT22;251;48.704;9.210;2023-04-23T07:19:36;14.00;28.80
530;DHT22;251;48.704;9.210;2023-04-23T07:22:04;13.80;26.60
530;DHT22;251;48.704;9.210;2023-04-23T07:24:31;14.10;26.90
530;DHT22;251;48.704;9.210;2023-04-23T07:26:58;14.50;26.80
530;DHT22;251;48.704;9.210;2023-04-23T07:29:25;14.50;25.50
530;DHT22;251;48.704;9.210;2023-04-23T07:31:52;14.60;24.80
530;DHT22;251;48.704;9.210;2023-04-23T07:34:19;14.80;25.60
530;DHT22;251;48.704;9.210;2023-04-23T07:36:46;14.70;24.80
530;DHT22;251;48.704;9.210;2023-04-23T07:39:14;14.80;24.60
530;DHT22;251;48.704;9.210;2023-04-23T07:41:41;15.20;22.90
530;DHT22;251;48.704;9.210;2023-04-23T07:44:08;15.40;22.40
530;DHT22;251;48.704;9.210;2023-04-23T07:46:34;15.30;22.70
530;DHT22;251;48.704;9.210;2023-04-23T07:49:01;15.20;21.30
530;DHT22;251;48.704;9.210;2023-04-23T07:51:28;15.30;21.60
530;DHT22;251;48.704;9.210;2023-04-23T07:53:56;16.00;20.90
530;DHT22;251;48.704;9.210;2023-04-23T07:56:24;15.90;20.90
530;DHT22;251;48.704;9.210;2023-04-23T07:58:51;15.90;18.20
530;DHT22;251;48.704;9.210;2023-04-23T08:01:21;16.30;19.20
530;DHT22;251;48.704;9.210;2023-04-23T08:03:47;16.20;17.30
530;DHT22;251;48.704;9.210;2023-04-23T08:06:15;16.60;17.80
530;DHT22;251;48.704;9.210;2023-04-23T08:08:42;16.50;16.20
530;DHT22;251;48.704;9.210;2023-04-23T08:11:09;16.40;15.70
530;DHT22;251;48.704;9.210;2023-04-23T08:13:37;16.50;16.20
530;DHT22;251;48.704;9.210;2023-04-23T08:16:05;16.50;16.60
530;DHT22;251;48.704;9.210;2023-04-23T08:18:32;16.60;15.20
530;DHT22;251;48.704;9.210;2023-04-23T08:20:59;16.80;15.10
530;DHT22;251;48.704;9.210;2023-04-23T08:23:27;16.90;12.40
530;DHT22;251;48.704;9.210;2023-04-23T08:25:53;17.00;13.80
530;DHT22;251;48.704;9.210;2023-04-23T08:28:20;17.20;13.00
530;DHT22;251;48.704;9.210;2023-04-23T08:30:48;17.20;13.10
530;DHT22;251;48.704;9.210;2023-04-23T08:33:15;17.40;10.90
530;DHT22;251;48.704;9.210;2023-04-23T08:35:42;17.60;12.80
530;DHT22;251;48.704;9.210;2023-04-23T08:38:09;17.50;10.20
530;DHT22;251;48.704;9.210;2023-04-23T08:40:36;17.40;11.30
530;DHT22;251;48.704;9.210;2023-04-23T08:43:09;17.30;10.80
530;DHT22;251;48.704;9.210;2023-04-23T08:45:39;17.30;11.20
530;DHT22;251;48.704;9.210;2023-04-23T08:48:09;17.30;11.00
530;DHT22;251;48.704;9.210;2023-04-23T08:50:37;17.30;11.00
530;DHT22;251;48.704;9.210;2023-04-23T08:53:05;17.30;10.60
530;DHT22;251;48.704;9.210;2023-04-23T08:55:33;17.50;11.20
530;DHT22;251;48.704;9.210;2023-04-23T08:58:01;17.50;10.50
530;DHT22;251;48.704;9.210;2023-04-23T09:00:31;17.70;9.50
530;DHT22;251;48.704;9.210;2023-04-23T09:02:58;18.00;10.60
530;DHT22;251;48.704;9.210;2023-04-23T09:05:26;18.30;8.70
530;DHT22;251;48.704;9.210;2023-04-23T09:07:53;18.40;8.70
530;DHT22;251;48.704;9.210;2023-04-23T09:10:20;18.60;7.50
530;DHT22;251;48.704;9.210;2023-04-23T09:12:47;18.80;7.50
530;DHT22;251;48.704;9.210;2023-04-23T09:15:14;19.00;7.00
530;DHT22;251;48.704;9.210;2023-04-23T09:17:43;19.30;8.10
530;DHT22;251;48.704;9.210;2023-04-23T09:20:11;19.40;7.00
530;DHT22;251;48.704;9.210;2023-04-23T09:22:41;19.50;5.30
530;DHT22;251;48.704;9.210;2023-04-23T09:25:10;19.80;7.20
530;DHT22;251;48.704;9.210;2023-04-23T09:27:37;20.10;7.90
530;DHT22;251;48.704;9.210;2023-04-23T09:30:05;19.90;3.80
530;DHT22;251;48.704;9.210;2023-04-23T09:32:34;19.90;3.80
530;DHT22;251;48.704;9.210;2023-04-23T09:35:02;19.90;5.00
530;DHT22;251;48.704;9.210;2023-04-23T09:37:30;20.10;5.20
530;DHT22;251;48.704;9.210;2023-04-23T09:40:02;20.30;5.10
530;DHT22;251;48.704;9.210;2023-04-23T09:42:31;20.50;2.80
530;DHT22;251;48.704;9.210;2023-04-23T09:45:01;20.70;3.50
530;DHT22;251;48.704;9.210;2023-04-23T09:47:31;20.40;3.20
530;DHT22;251;48.704;9.210;2023-04-23T09:49:58;20.50;3.60
530;DHT22;251;48.704;9.210;2023-04-23T09:52:25;20.50;3.10
530;DHT22;251;48.704;9.210;2023-04-23T09:54:55;20.40;4.10
530;DHT22;251;48.704;9.210;2023-04-23T09:57:24;20.60;3.40
530;DHT22;251;48.704;9.210;2023-04-23T09:59:52;20.50;1.90
530;DHT22;251;48.704;9.210;2023-04-23T10:02:19;20.50;2.90
530;DHT22;251;48.704;9.210;2023-04-23T10:04:50;20.30;1.60
530;DHT22;251;48.704;9.210;2023-04-23T10:07:17;20.20;3.40
530;DHT22;251;48.704;9.210;2023-04-23T10:09:46;20.30;3.00
530;DHT22;251;48.704;9.210;2023-04-23T10:12:13;20.40;2.50
530;DHT22;251;48.704;9.210;2023-04-23T10:14:42;20.70;2.40
530;DHT22;251;48.704;9.210;2023-04-23T10:17:09;21.00;1.00
530;DHT22;251;48.704;9.210;2023-04-23T10:19:37;21.30;1.00
530;DHT22;251;48.704;9.210;2023-04-23T10:22:08;21.20;1.00
530;DHT22;251;48.704;9.210;2023-04-23T10:24:39;21.30;1.00
530;DHT22;251;48.704;9.210;2023-04-23T10:27:10;21.50;1.00
530;DHT22;251;48.704;9.210;2023-04-23T10:29:37;22.00;1.00
530;DHT22;251;48.704;9.210;2023-04-23T10:32:06;22.40;1.00
530;DHT22;251;48.704;9.210;2023-04-23T10:34:34;23.00;1.00
530;DHT22;251;48.704;9.210;2023-04-23T10:37:01;23.40;1.00
530;DHT22;251;48.704;9.210;2023-04-23T10:39:30;23.80;1.00
530;DHT22;251;48.704;9.210;2023-04-23T10:41:58;24.10;1.00
530;DHT22;251;48.704;9.210;2023-04-23T10:44:31;24.20;1.00
530;DHT22;251;48.704;9.210;2023-04-23T10:46:58;24.50;1.00
530;DHT22;251;48.704;9.210;2023-04-23T10:49:30;24.20;1.00
530;DHT22;251;48.704;9.210;2023-04-23T10:51:58;24.50;1.00
530;DHT22;251;48.704;9.210;2023-04-23T10:54:28;25.10;1.00
530;DHT22;251;48.704;9.210;2023-04-23T10:56:58;25.30;1.00
530;DHT22;251;48.704;9.210;2023-04-23T10:59:26;25.10;1.00
530;DHT22;251;48.704;9.210;2023-04-23T11:01:55;25.10;1.00
530;DHT22;251;48.704;9.210;2023-04-23T11:04:24;25.10;1.00
530;DHT22;251;48.704;9.210;2023-04-23T11:06:55;25.40;1.00
530;DHT22;251;48.704;9.210;2023-04-23T11:09:30;25.50;1.00
530;DHT22;251;48.704;9.210;2023-04-23T11:11:58;25.40;1.00
530;DHT22;251;48.704;9.210;2023-04-23T11:14:33;25.40;1.00
530;DHT22;251;48.704;9.210;2023-04-23T11:17:01;25.40;1.00
530;DHT22;251;48.704;9.210;2023-04-23T11:19:28;25.30;1.00
530;DHT22;251;48.704;9.210;2023-04-23T11:22:02;25.70;1.00
530;DHT22;251;48.704;9.210;2023-04-23T11:24:30;25.70;1.00
530;DHT22;251;48.704;9.210;2023-04-23T11:26:57;25.60;1.00
530;DHT22;251;48.704;9.210;2023-04-23T11:29:27;25.30;1.00
530;DHT22;251;48.704;9.210;2023-04-23T11:31:55;25.40;1.00
530;DHT22;251;48.704;9.210;2023-04-23T11:34:23;25.80;1.00
530;DHT22;251;48.704;9.210;2023-04-23T11:36:54;26.10;1.00
530;DHT22;251;48.704;9.210;2023-04-23T11:39:23;25.80;1.00
530;DHT22;251;48.704;9.210;2023-04-23T11:41:50;25.50;1.00
530;DHT22;251;48.704;9.210;2023-04-23T11:44:18;25.30;1.00
530;DHT22;251;48.704;9.210;2023-04-23T11:46:47;25.50;1.00
530;DHT22;251;48.704;9.210;2023-04-23T11:49:16;25.90;1.00
530;DHT22;251;48.704;9.210;2023-04-23T11:51:44;26.00;1.00
530;DHT22;251;48.704;9.210;2023-04-23T11:54:12;26.40;1.00
530;DHT22;251;48.704;9.210;2023-04-23T11:56:43;27.40;1.00
530;DHT22;251;48.704;9.210;2023-04-23T11:59:10;28.20;1.00
530;DHT22;251;48.704;9.210;2023-04-23T12:01:45;28.10;1.00
530;DHT22;251;48.704;9.210;2023-04-23T12:04:17;29.20;1.00
530;DHT22;251;48.704;9.210;2023-04-23T12:06:48;29.20;1.00
530;DHT22;251;48.704;9.210;2023-04-23T12:09:19;28.80;1.00
530;DHT22;251;48.704;9.210;2023-04-23T12:11:49;28.10;1.00
530;DHT22;251;48.704;9.210;2023-04-23T12:14:18;27.10;1.00
530;DHT22;251;48.704;9.210;2023-04-23T12:16:48;26.20;1.00
530;DHT22;251;48.704;9.210;2023-04-23T12:19:18;25.70;1.00
530;DHT22;251;48.704;9.210;2023-04-23T12:21:49;25.10;1.00
530;DHT22;251;48.704;9.210;2023-04-23T12:24:19;25.00;1.00
530;DHT22;251;48.704;9.210;2023-04-23T12:26:50;24.80;1.00
530;DHT22;251;48.704;9.210;2023-04-23T12:29:19;24.90;1.00
530;DHT22;251;48.704;9.210;2023-04-23T12:31:47;26.00;1.00
530;DHT22;251;48.704;9.210;2023-04-23T12:34:15;27.30;1.00
530;DHT22;251;48.704;9.210;2023-04-23T12:36:44;27.40;1.00
530;DHT22;251;48.704;9.210;2023-04-23T12:39:35;26.80;1.00
530;DHT22;251;48.704;9.210;2023-04-23T12:42:05;26.80;1.00
530;DHT22;251;48.704;9.210;2023-04-23T12:44:33;27.40;1.00
530;DHT22;251;48.704;9.210;2023-04-23T12:47:03;27.50;1.00
530;DHT22;251;48.704;9.210;2023-04-23T12:49:30;27.80;1.00
530;DHT22;251;48.704;9.210;2023-04-23T12:51:58;29.10;1.00
530;DHT22;251;48.704;9.210;2023-04-23T12:54:27;30.30;1.00
530;DHT22;251;48.704;9.210;2023-04-23T12:56:54;31.40;1.00
530;DHT22;251;48.704;9.210;2023-04-23T12:59:23;31.80;1.00
530;DHT22;251;48.704;9.210;2023-04-23T13:01:50;31.40;1.00
530;DHT22;251;48.704;9.210;2023-04-23T13:04:16;31.30;1.00
530;DHT22;251;48.704;9.210;2023-04-23T13:06:44;31.30;1.00
530;DHT22;251;48.704;9.210;2023-04-23T13:09:10;30.70;1.00
530;DHT22;251;48.704;9.210;2023-04-23T13:11:38;30.00;1.00
530;DHT22;251;48.704;9.210;2023-04-23T13:14:06;30.70;1.00
530;DHT22;251;48.704;9.210;2023-04-23T13:16:34;31.70;1.00
530;DHT22;251;48.704;9.210;2023-04-23T13:19:02;32.60;1.00
530;DHT22;251;48.704;9.210;2023-04-23T13:21:29;32.90;1.00
530;DHT22;251;48.704;9.210;2023-04-23T13:23:56;33.80;1.00
530;DHT22;251;48.704;9.210;2023-04-23T13:26:23;33.80;1.00
530;DHT22;251;48.704;9.210;2023-04-23T13:28:50;33.50;1.00
530;DHT22;251;48.704;9.210;2023-04-23T13:31:17;33.30;1.00
530;DHT22;251;48.704;9.210;2023-04-23T13:33:45;33.50;1.00
530;DHT22;251;48.704;9.210;2023-04-23T13:36:12;32.90;1.00
530;DHT22;251;48.704;9.210;2023-04-23T13:38:39;32.10;1.00
530;DHT22;251;48.704;9.210;2023-04-23T13:41:06;30.70;1.00
530;DHT22;251;48.704;9.210;2023-04-23T13:43:33;30.10;1.00
530;DHT22;251;48.704;9.210;2023-04-23T13:46:00;30.70;1.00
530;DHT22;251;48.704;9.210;2023-04-23T13:48:26;30.90;1.00
530;DHT22;251;48.704;9.210;2023-04-23T13:50:57;31.00;1.00
530;DHT22;251;48.704;9.210;2023-04-23T13:53:24;30.50;1.00
530;DHT22;251;48.704;9.210;2023-04-23T13:55:52;30.40;1.00
530;DHT22;251;48.704;9.210;2023-04-23T13:58:19;31.20;1.00
530;DHT22;251;48.704;9.210;2023-04-23T14:00:45;32.40;1.00
530;DHT22;251;48.704;9.210;2023-04-23T14:03:12;32.60;1.00
530;DHT22;251;48.704;9.210;2023-04-23T14:05:39;33.10;1.00
530;DHT22;251;48.704;9.210;2023-04-23T14:08:07;33.60;1.00
530;DHT22;251;48.704;9.210;2023-04-23T14:10:34;33.60;1.00
530;DHT22;251;48.704;9.210;2023-04-23T14:13:02;33.60;1.00
530;DHT22;251;48.704;9.210;2023-04-23T14:15:29;33.60;1.00
530;DHT22;251;48.704;9.210;2023-04-23T14:17:56;33.50;1.00
530;DHT22;251;48.704;9.210;2023-04-23T14:20:24;33.10;1.00
530;DHT22;251;48.704;9.210;2023-04-23T14:23:00;32.30;1.00
530;DHT22;251;48.704;9.210;2023-04-23T14:25:44;30.90;1.00
530;DHT22;251;48.704;9.210;2023-04-23T14:28:27;30.20;1.00
530;DHT22;251;48.704;9.210;2023-04-23T14:31:00;29.20;1.00
530;DHT22;251;48.704;9.210;2023-04-23T14:33:40;28.60;1.00
530;DHT22;251;48.704;9.210;2023-04-23T14:36:07;27.80;1.00
530;DHT22;251;48.704;9.210;2023-04-23T14:38:39;26.90;1.00
530;DHT22;251;48.704;9.210;2023-04-23T14:41:08;26.20;1.00
530;DHT22;251;48.704;9.210;2023-04-23T14:43:34;25.90;1.00
530;DHT22;251;48.704;9.210;2023-04-23T14:46:02;25.70;1.00
530;DHT22;251;48.704;9.210;2023-04-23T14:48:29;26.00;1.00
530;DHT22;251;48.704;9.210;2023-04-23T14:50:56;26.90;1.00
530;DHT22;251;48.704;9.210;2023-04-23T14:53:23;27.20;1.00
530;DHT22;251;48.704;9.210;2023-04-23T14:55:50;27.00;1.00
530;DHT22;251;48.704;9.210;2023-04-23T14:58:18;26.60;1.00
530;DHT22;251;48.704;9.210;2023-04-23T15:00:45;26.00;1.00
530;DHT22;251;48.704;9.210;2023-04-23T15:03:13;25.60;1.00
530;DHT22;251;48.704;9.210;2023-04-23T15:05:40;25.40;1.00
530;DHT22;251;48.704;9.210;2023-04-23T15:08:07;25.30;1.00
530;DHT22;251;48.704;9.210;2023-04-23T15:10:34;25.40;1.00
530;DHT22;251;48.704;9.210;2023-04-23T15:13:02;25.30;1.00
530;DHT22;251;48.704;9.210;2023-04-23T15:15:42;25.20;1.00
530;DHT22;251;48.704;9.210;2023-04-23T15:18:10;25.10;1.00
530;DHT22;251;48.704;9.210;2023-04-23T15:20:37;24.80;1.00
530;DHT22;251;48.704;9.210;2023-04-23T15:23:04;24.40;1.00
530;DHT22;251;48.704;9.210;2023-04-23T15:25:31;23.90;1.00
530;DHT22;251;48.704;9.210;2023-04-23T15:27:58;23.40;1.00
530;DHT22;251;48.704;9.210;2023-04-23T15:30:26;22.80;1.00
530;DHT22;251;48.704;9.210;2023-04-23T15:32:55;21.60;1.00
530;DHT22;251;48.704;9.210;2023-04-23T15:35:22;21.10;1.30
530;DHT22;251;48.704;9.210;2023-04-23T15:37:49;20.10;4.30
530;DHT22;251;48.704;9.210;2023-04-23T15:40:16;19.10;8.70
530;DHT22;251;48.704;9.210;2023-04-23T15:42:43;18.10;9.70
530;DHT22;251;48.704;9.210;2023-04-23T15:45:10;17.40;15.50
530;DHT22;251;48.704;9.210;2023-04-23T15:47:38;17.10;18.50
530;DHT22;251;48.704;9.210;2023-04-23T15:50:08;17.00;21.70
530;DHT22;251;48.704;9.210;2023-04-23T15:52:36;17.10;19.50
530;DHT22;251;48.704;9.210;2023-04-23T15:55:03;17.10;16.60
530;DHT22;251;48.704;9.210;2023-04-23T15:57:30;17.30;13.70
530;DHT22;251;48.704;9.210;2023-04-23T15:59:57;17.50;15.50
530;DHT22;251;48.704;9.210;2023-04-23T16:02:24;17.60;16.90
530;DHT22;251;48.704;9.210;2023-04-23T16:04:51;17.80;14.70
530;DHT22;251;48.704;9.210;2023-04-23T16:07:19;17.90;15.40
530;DHT22;251;48.704;9.210;2023-04-23T16:09:46;18.00;14.90
530;DHT22;251;48.704;9.210;2023-04-23T16:12:14;18.00;15.00
530;DHT22;251;48.704;9.210;2023-04-23T16:14:45;18.00;14.30
530;DHT22;251;48.704;9.210;2023-04-23T16:17:14;17.90;13.00
530;DHT22;251;48.704;9.210;2023-04-23T16:19:41;17.80;14.00
530;DHT22;251;48.704;9.210;2023-04-23T16:22:10;17.70;15.30
530;DHT22;251;48.704;9.210;2023-04-23T16:24:41;17.60;16.80
530;DHT22;251;48.704;9.210;2023-04-23T16:27:10;17.40;12.70
530;DHT22;251;48.704;9.210;2023-04-23T16:29:37;17.10;15.40
530;DHT22;251;48.704;9.210;2023-04-23T16:32:04;16.80;17.30
530;DHT22;251;48.704;9.210;2023-04-23T16:34:31;16.30;20.40
530;DHT22;251;48.704;9.210;2023-04-23T16:37:01;15.70;24.10
530;DHT22;251;48.704;9.210;2023-04-23T16:39:31;15.20;25.60
530;DHT22;251;48.704;9.210;2023-04-23T16:42:06;14.80;26.40
530;DHT22;251;48.704;9.210;2023-04-23T16:44:37;14.50;28.50
530;DHT22;251;48.704;9.210;2023-04-23T16:47:04;14.80;32.10